createdAt,value
2023-03-29T00:00:57.605Z,86.76
2023-03-29T00:01:57.660Z,86.65
2023-03-29T00:02:57.697Z,86.76
2023-03-29T00:03:58.819Z,86.76
2023-03-29T00:04:57.586Z,86.86
2023-03-29T00:05:57.589Z,87.07
2023-03-29T00:06:57.549Z,86.65
2023-03-29T00:07:57.540Z,86.65
2023-03-29T00:08:57.517Z,86.65
2023-03-29T00:09:57.518Z,86.44
2023-03-29T00:10:57.541Z,86.24
2023-03-29T00:11:57.503Z,86.76
2023-03-29T00:12:57.484Z,86.65
2023-03-29T00:13:57.474Z,86.55
2023-03-29T00:14:57.484Z,86.51
2023-03-29T00:15:57.459Z,86.55
2023-03-29T00:16:57.459Z,86.65
2023-03-29T00:17:57.441Z,86.71
2023-03-29T00:18:57.431Z,86.86
2023-03-29T00:19:57.403Z,86.96
2023-03-29T00:20:57.693Z,86.96
2023-03-29T00:21:57.369Z,86.86
2023-03-29T00:22:57.375Z,86.76
2023-03-29T00:23:57.332Z,86.76
2023-03-29T00:24:57.336Z,86.76
2023-03-29T00:25:57.316Z,86.44
2023-03-29T00:26:57.314Z,86.76
2023-03-29T00:27:57.312Z,87.07
2023-03-29T00:29:00.213Z,86.96
2023-03-29T00:29:57.301Z,86.86
2023-03-29T00:30:57.307Z,86.96
2023-03-29T00:31:57.289Z,87.27
2023-03-29T00:32:57.449Z,87.27
2023-03-29T00:33:57.234Z,87.27
2023-03-29T00:34:57.242Z,87.37
2023-03-29T00:35:57.255Z,87.68
2023-03-29T00:36:57.204Z,87.79
2023-03-29T00:37:57.205Z,87.79
2023-03-29T00:38:57.182Z,87.89
2023-03-29T00:39:57.193Z,87.89
2023-03-29T00:40:57.148Z,88.20
2023-03-29T00:41:57.130Z,88.10
2023-03-29T00:42:57.142Z,88.10
2023-03-29T00:43:57.119Z,88.41
2023-03-29T00:44:57.113Z,88.45
2023-03-29T00:45:57.102Z,88.45
2023-03-29T00:46:57.082Z,88.34
2023-03-29T00:47:57.408Z,88.34
2023-03-29T00:48:57.074Z,88.34
2023-03-29T00:49:57.072Z,88.45
2023-03-29T00:50:57.033Z,88.45
2023-03-29T00:51:57.020Z,88.45
2023-03-29T00:52:57.029Z,88.55
2023-03-29T00:53:57.002Z,88.65
2023-03-29T00:54:56.982Z,88.76
2023-03-29T00:55:56.986Z,88.65
2023-03-29T00:57:05.045Z,89.03
2023-03-29T00:57:56.955Z,88.71
2023-03-29T00:59:06.756Z,88.41
2023-03-29T01:00:05.737Z,88.51
2023-03-29T01:00:57.408Z,88.31
2023-03-29T01:01:56.945Z,88.51
2023-03-29T01:02:56.967Z,88.55
2023-03-29T01:03:56.913Z,88.65
2023-03-29T01:04:56.867Z,88.82
2023-03-29T01:05:56.856Z,88.65
2023-03-29T01:06:57.004Z,88.61
2023-03-29T01:07:56.843Z,88.71
2023-03-29T01:08:56.825Z,88.71
2023-03-29T01:09:56.844Z,88.61
2023-03-29T01:10:57.112Z,88.51
2023-03-29T01:11:56.797Z,88.71
2023-03-29T01:12:56.808Z,88.71
2023-03-29T01:13:56.764Z,88.51
2023-03-29T01:14:56.743Z,88.41
2023-03-29T01:15:56.758Z,88.41
2023-03-29T01:16:56.742Z,88.51
2023-03-29T01:17:56.742Z,88.41
2023-03-29T01:18:56.725Z,88.51
2023-03-29T01:19:56.729Z,88.41
2023-03-29T01:20:56.693Z,88.61
2023-03-29T01:21:56.692Z,88.71
2023-03-29T01:22:56.664Z,88.71
2023-03-29T01:23:56.654Z,88.71
2023-03-29T01:24:56.645Z,88.86
2023-03-29T01:25:56.651Z,89.07
2023-03-29T01:26:56.616Z,88.86
2023-03-29T01:27:56.610Z,88.86
2023-03-29T01:28:56.588Z,88.96
2023-03-29T01:29:56.576Z,88.86
2023-03-29T01:30:56.886Z,88.96
2023-03-29T01:31:56.589Z,89.07
2023-03-29T01:32:56.612Z,88.82
2023-03-29T01:33:57.260Z,88.71
2023-03-29T01:34:56.541Z,88.92
2023-03-29T01:35:56.609Z,88.82
2023-03-29T01:36:56.497Z,88.71
2023-03-29T01:37:56.520Z,88.51
2023-03-29T01:38:56.486Z,88.61
2023-03-29T01:39:56.486Z,88.41
2023-03-29T01:40:56.454Z,88.51
2023-03-29T01:41:56.457Z,88.51
2023-03-29T01:42:56.479Z,88.51
2023-03-29T01:43:56.411Z,88.41
2023-03-29T01:44:56.467Z,88.41
2023-03-29T01:45:56.472Z,88.51
2023-03-29T01:46:56.380Z,88.61
2023-03-29T01:47:56.387Z,88.51
2023-03-29T01:48:56.336Z,88.61
2023-03-29T01:49:56.360Z,88.82
2023-03-29T01:50:56.363Z,88.61
2023-03-29T01:51:56.343Z,88.71
2023-03-29T01:52:56.331Z,88.82
2023-03-29T01:53:56.331Z,88.51
2023-03-29T01:54:56.277Z,88.51
2023-03-29T01:55:56.276Z,88.61
2023-03-29T01:56:56.320Z,88.41
2023-03-29T01:57:56.302Z,88.10
2023-03-29T01:58:56.235Z,88.20
2023-03-29T01:59:56.266Z,88.10
2023-03-29T02:00:56.582Z,88.10
2023-03-29T02:01:56.291Z,88.20
2023-03-29T02:02:56.394Z,88.20
2023-03-29T02:03:56.176Z,88.10
2023-03-29T02:04:56.179Z,88.10
2023-03-29T02:05:56.176Z,87.99
2023-03-29T02:06:56.148Z,87.89
2023-03-29T02:07:56.147Z,87.79
2023-03-29T02:08:56.138Z,87.68
2023-03-29T02:09:56.108Z,87.68
2023-03-29T02:10:56.120Z,87.79
2023-03-29T02:11:56.107Z,87.79
2023-03-29T02:12:56.107Z,87.89
2023-03-29T02:13:56.339Z,87.85
2023-03-29T02:14:56.033Z,87.85
2023-03-29T02:15:56.073Z,87.65
2023-03-29T02:16:56.026Z,87.54
2023-03-29T02:17:56.054Z,87.74
2023-03-29T02:18:56.334Z,87.74
2023-03-29T02:19:55.991Z,87.85
2023-03-29T02:20:55.985Z,87.74
2023-03-29T02:21:55.970Z,87.79
2023-03-29T02:22:55.968Z,87.74
2023-03-29T02:23:55.948Z,87.85
2023-03-29T02:24:55.948Z,87.74
2023-03-29T02:25:55.912Z,87.74
2023-03-29T02:26:55.914Z,87.65
2023-03-29T02:27:55.924Z,87.65
2023-03-29T02:28:55.919Z,87.54
2023-03-29T02:29:55.876Z,87.54
2023-03-29T02:30:55.918Z,87.65
2023-03-29T02:31:55.863Z,87.74
2023-03-29T02:32:55.916Z,87.85
2023-03-29T02:33:55.850Z,87.65
2023-03-29T02:34:55.850Z,87.34
2023-03-29T02:35:56.189Z,87.44
2023-03-29T02:36:55.792Z,87.13
2023-03-29T02:37:55.791Z,87.23
2023-03-29T02:38:55.783Z,87.34
2023-03-29T02:39:55.759Z,87.44
2023-03-29T02:40:55.769Z,87.34
2023-03-29T02:42:03.083Z,87.54
2023-03-29T02:43:03.067Z,87.44
2023-03-29T02:44:04.644Z,87.23
2023-03-29T02:44:55.688Z,87.13
2023-03-29T02:45:55.687Z,87.13
2023-03-29T02:46:55.796Z,87.02
2023-03-29T02:47:55.714Z,87.02
2023-03-29T02:48:55.662Z,87.02
2023-03-29T02:49:55.655Z,87.13
2023-03-29T02:50:55.620Z,87.13
2023-03-29T02:51:55.626Z,86.82
2023-03-29T02:52:55.641Z,86.71
2023-03-29T02:53:55.582Z,86.82
2023-03-29T02:54:55.914Z,86.71
2023-03-29T02:55:55.615Z,86.71
2023-03-29T02:56:55.588Z,86.82
2023-03-29T02:57:55.571Z,87.02
2023-03-29T02:58:55.581Z,86.82
2023-03-29T02:59:55.534Z,86.61
2023-03-29T03:00:55.519Z,86.61
2023-03-29T03:01:55.552Z,86.71
2023-03-29T03:02:55.624Z,86.41
2023-03-29T03:03:55.568Z,86.30
2023-03-29T03:04:55.491Z,86.36
2023-03-29T03:05:55.456Z,86.47
2023-03-29T03:06:55.448Z,86.26
2023-03-29T03:07:55.474Z,86.05
2023-03-29T03:08:55.432Z,85.95
2023-03-29T03:09:55.399Z,86.05
2023-03-29T03:10:55.420Z,85.85
2023-03-29T03:11:55.393Z,85.95
2023-03-29T03:12:55.373Z,85.85
2023-03-29T03:13:55.387Z,85.64
2023-03-29T03:14:55.364Z,85.85
2023-03-29T03:15:55.450Z,85.64
2023-03-29T03:16:55.614Z,85.64
2023-03-29T03:17:55.364Z,85.64
2023-03-29T03:18:55.301Z,85.54
2023-03-29T03:19:55.295Z,85.54
2023-03-29T03:20:55.323Z,85.64
2023-03-29T03:21:55.256Z,85.64
2023-03-29T03:22:55.323Z,85.33
2023-03-29T03:23:55.272Z,85.44
2023-03-29T03:24:55.244Z,85.23
2023-03-29T03:25:55.282Z,85.23
2023-03-29T03:26:55.238Z,85.02
2023-03-29T03:27:55.205Z,85.02
2023-03-29T03:28:55.177Z,85.02
2023-03-29T03:29:55.190Z,84.92
2023-03-29T03:30:55.168Z,84.81
2023-03-29T03:31:55.163Z,84.81
2023-03-29T03:32:55.216Z,85.13
2023-03-29T03:33:55.118Z,84.92
2023-03-29T03:34:55.106Z,85.02
2023-03-29T03:35:55.138Z,85.23
2023-03-29T03:36:55.119Z,84.81
2023-03-29T03:37:55.085Z,84.72
2023-03-29T03:38:55.073Z,84.72
2023-03-29T03:39:55.079Z,84.61
2023-03-29T03:40:55.073Z,84.72
2023-03-29T03:41:55.038Z,84.41
2023-03-29T03:42:55.074Z,84.36
2023-03-29T03:43:55.016Z,84.36
2023-03-29T03:44:55.003Z,84.27
2023-03-29T03:45:55.077Z,84.36
2023-03-29T03:46:54.974Z,84.27
2023-03-29T03:47:55.025Z,84.27
2023-03-29T03:48:54.969Z,84.36
2023-03-29T03:49:54.966Z,84.36
2023-03-29T03:50:54.933Z,84.16
2023-03-29T03:51:54.932Z,84.06
2023-03-29T03:52:54.930Z,84.06
2023-03-29T03:53:54.905Z,84.06
2023-03-29T03:54:54.883Z,84.16
2023-03-29T03:55:54.922Z,84.16
2023-03-29T03:56:54.898Z,84.16
2023-03-29T03:57:54.843Z,83.95
2023-03-29T03:58:54.865Z,83.95
2023-03-29T03:59:54.861Z,83.95
2023-03-29T04:00:54.811Z,83.75
2023-03-29T04:01:54.893Z,83.75
2023-03-29T04:02:54.872Z,83.95
2023-03-29T04:03:54.914Z,83.95
2023-03-29T04:04:54.798Z,84.16
2023-03-29T04:05:54.764Z,84.16
2023-03-29T04:06:54.748Z,84.36
2023-03-29T04:07:54.766Z,84.47
2023-03-29T04:08:54.733Z,84.57
2023-03-29T04:09:54.726Z,84.47
2023-03-29T04:10:54.739Z,84.16
2023-03-29T04:11:54.854Z,84.27
2023-03-29T04:12:54.668Z,84.16
2023-03-29T04:13:54.690Z,83.85
2023-03-29T04:14:54.645Z,83.95
2023-03-29T04:15:54.668Z,83.85
2023-03-29T04:16:54.648Z,83.85
2023-03-29T04:17:54.960Z,83.95
2023-03-29T04:18:54.667Z,83.95
2023-03-29T04:19:54.596Z,83.85
2023-03-29T04:20:54.623Z,83.81
2023-03-29T04:21:54.593Z,83.75
2023-03-29T04:23:01.963Z,83.71
2023-03-29T04:24:01.603Z,83.71
2023-03-29T04:25:03.897Z,83.71
2023-03-29T04:26:01.957Z,83.81
2023-03-29T04:27:01.938Z,83.71
2023-03-29T04:27:56.381Z,83.81
2023-03-29T04:28:54.844Z,83.81
2023-03-29T04:29:58.139Z,83.75
2023-03-29T04:30:57.368Z,83.71
2023-03-29T04:31:54.481Z,83.81
2023-03-29T04:32:54.526Z,83.71
2023-03-29T04:33:54.438Z,83.81
2023-03-29T04:34:54.439Z,83.61
2023-03-29T04:35:54.460Z,83.81
2023-03-29T04:36:54.401Z,83.50
2023-03-29T04:37:54.414Z,83.71
2023-03-29T04:38:54.417Z,83.71
2023-03-29T04:39:54.688Z,83.71
2023-03-29T04:40:54.364Z,83.61
2023-03-29T04:41:54.493Z,83.81
2023-03-29T04:42:54.385Z,83.71
2023-03-29T04:43:54.333Z,83.71
2023-03-29T04:44:54.420Z,83.91
2023-03-29T04:45:54.319Z,83.71
2023-03-29T04:46:54.353Z,83.91
2023-03-29T04:47:54.357Z,84.22
2023-03-29T04:48:54.271Z,83.91
2023-03-29T04:49:54.297Z,83.81
2023-03-29T04:50:54.280Z,83.81
2023-03-29T04:51:54.251Z,83.81
2023-03-29T04:52:54.234Z,83.81
2023-03-29T04:53:54.239Z,83.81
2023-03-29T04:54:54.239Z,83.61
2023-03-29T04:55:54.188Z,83.81
2023-03-29T04:56:54.269Z,83.91
2023-03-29T04:57:54.185Z,84.12
2023-03-29T04:58:54.166Z,84.12
2023-03-29T04:59:54.184Z,83.71
2023-03-29T05:00:54.149Z,83.71
2023-03-29T05:01:55.881Z,83.81
2023-03-29T05:02:54.185Z,84.01
2023-03-29T05:03:54.121Z,84.01
2023-03-29T05:04:54.115Z,83.91
2023-03-29T05:05:54.102Z,84.01
2023-03-29T05:06:54.076Z,84.01
2023-03-29T05:07:54.078Z,83.71
2023-03-29T05:08:54.063Z,83.61
2023-03-29T05:09:54.038Z,83.91
2023-03-29T05:10:54.017Z,83.91
2023-03-29T05:11:54.040Z,84.01
2023-03-29T05:12:56.880Z,83.61
2023-03-29T05:13:53.999Z,83.61
2023-03-29T05:14:54.005Z,83.91
2023-03-29T05:15:54.021Z,83.71
2023-03-29T05:16:53.971Z,83.40
2023-03-29T05:17:54.000Z,83.50
2023-03-29T05:18:53.989Z,83.71
2023-03-29T05:19:53.941Z,83.71
2023-03-29T05:20:53.910Z,83.71
2023-03-29T05:21:53.921Z,83.81
2023-03-29T05:22:53.897Z,83.47
2023-03-29T05:23:53.888Z,83.61
2023-03-29T05:24:53.878Z,83.67
2023-03-29T05:25:54.134Z,83.50
2023-03-29T05:26:53.840Z,83.50
2023-03-29T05:27:53.854Z,83.47
2023-03-29T05:28:55.736Z,83.56
2023-03-29T05:29:53.810Z,83.15
2023-03-29T05:30:53.797Z,83.36
2023-03-29T05:31:55.756Z,83.47
2023-03-29T05:32:54.159Z,83.47
2023-03-29T05:33:53.758Z,83.47
2023-03-29T05:34:53.753Z,83.47
2023-03-29T05:35:53.776Z,83.67
2023-03-29T05:36:53.742Z,83.67
2023-03-29T05:37:53.742Z,83.47
2023-03-29T05:38:53.705Z,83.47
2023-03-29T05:39:53.697Z,83.67
2023-03-29T05:40:54.676Z,83.67
2023-03-29T05:41:53.703Z,83.56
2023-03-29T05:42:53.714Z,83.56
2023-03-29T05:43:53.646Z,83.47
2023-03-29T05:44:54.570Z,83.56
2023-03-29T05:45:53.660Z,83.56
2023-03-29T05:46:53.620Z,83.47
2023-03-29T05:47:53.682Z,83.36
2023-03-29T05:48:53.601Z,83.77
2023-03-29T05:49:53.575Z,83.47
2023-03-29T05:50:53.600Z,83.47
2023-03-29T05:51:53.558Z,83.26
2023-03-29T05:52:53.538Z,83.15
2023-03-29T05:53:53.568Z,83.15
2023-03-29T05:54:53.510Z,83.05
2023-03-29T05:55:53.506Z,83.05
2023-03-29T05:56:53.531Z,82.91
2023-03-29T05:57:53.512Z,82.91
2023-03-29T05:58:54.895Z,83.22
2023-03-29T05:59:53.465Z,82.91
2023-03-29T06:00:53.446Z,83.22
2023-03-29T06:01:53.509Z,82.81
2023-03-29T06:02:53.532Z,83.12
2023-03-29T06:03:53.610Z,83.01
2023-03-29T06:04:53.447Z,82.91
2023-03-29T06:05:53.407Z,83.01
2023-03-29T06:06:53.383Z,82.81
2023-03-29T06:08:00.758Z,82.91
2023-03-29T06:08:53.344Z,82.91
2023-03-29T06:10:01.728Z,83.12
2023-03-29T06:10:53.323Z,82.91
2023-03-29T06:11:53.351Z,82.81
2023-03-29T06:12:53.330Z,82.70
2023-03-29T06:13:53.309Z,82.70
2023-03-29T06:14:53.303Z,82.91
2023-03-29T06:15:53.288Z,83.39
2023-03-29T06:16:53.319Z,83.18
2023-03-29T06:17:53.291Z,82.67
2023-03-29T06:18:53.271Z,82.67
2023-03-29T06:19:53.248Z,82.46
2023-03-29T06:20:53.225Z,82.05
2023-03-29T06:21:53.266Z,82.15
2023-03-29T06:22:53.233Z,82.46
2023-03-29T06:23:53.198Z,82.35
2023-03-29T06:24:53.176Z,82.05
2023-03-29T06:25:53.204Z,81.95
2023-03-29T06:26:53.176Z,82.05
2023-03-29T06:27:53.199Z,81.74
2023-03-29T06:28:53.137Z,81.63
2023-03-29T06:29:53.225Z,81.70
2023-03-29T06:30:53.137Z,81.49
2023-03-29T06:31:53.135Z,81.60
2023-03-29T06:32:53.177Z,81.81
2023-03-29T06:33:53.104Z,82.01
2023-03-29T06:34:53.065Z,81.70
2023-03-29T06:35:53.154Z,81.39
2023-03-29T06:36:54.780Z,81.29
2023-03-29T06:37:53.357Z,81.09
2023-03-29T06:38:53.024Z,80.67
2023-03-29T06:39:53.407Z,80.88
2023-03-29T06:40:53.271Z,81.19
2023-03-29T06:41:53.332Z,81.29
2023-03-29T06:42:53.046Z,81.19
2023-03-29T06:43:52.975Z,81.09
2023-03-29T06:44:53.005Z,81.29
2023-03-29T06:45:53.021Z,81.05
2023-03-29T06:46:53.030Z,80.63
2023-03-29T06:47:52.973Z,81.05
2023-03-29T06:48:52.930Z,80.84
2023-03-29T06:49:52.916Z,80.74
2023-03-29T06:50:52.892Z,80.63
2023-03-29T06:51:52.886Z,80.74
2023-03-29T06:52:52.898Z,80.29
2023-03-29T06:53:52.858Z,80.29
2023-03-29T06:54:52.842Z,79.98
2023-03-29T06:55:52.860Z,79.57
2023-03-29T06:56:53.052Z,79.22
2023-03-29T06:57:52.838Z,79.12
2023-03-29T06:58:52.797Z,78.47
2023-03-29T06:59:52.793Z,78.67
2023-03-29T07:00:52.794Z,78.36
2023-03-29T07:01:52.862Z,78.06
2023-03-29T07:02:52.798Z,78.47
2023-03-29T07:03:52.761Z,78.27
2023-03-29T07:04:52.740Z,77.65
2023-03-29T07:05:52.744Z,78.36
2023-03-29T07:06:52.712Z,78.57
2023-03-29T07:07:52.721Z,78.78
2023-03-29T07:08:52.750Z,78.57
2023-03-29T07:09:52.661Z,78.27
2023-03-29T07:10:52.907Z,78.61
2023-03-29T07:11:52.661Z,78.92
2023-03-29T07:12:52.671Z,79.02
2023-03-29T07:13:52.622Z,78.50
2023-03-29T07:14:52.629Z,78.61
2023-03-29T07:15:52.624Z,79.12
2023-03-29T07:16:52.595Z,79.02
2023-03-29T07:17:52.680Z,79.22
2023-03-29T07:18:52.578Z,79.02
2023-03-29T07:19:52.567Z,78.71
2023-03-29T07:20:52.590Z,78.78
2023-03-29T07:21:52.557Z,78.88
2023-03-29T07:22:52.548Z,79.29
2023-03-29T07:23:54.273Z,79.29
2023-03-29T07:24:52.507Z,79.19
2023-03-29T07:25:52.488Z,78.98
2023-03-29T07:27:03.159Z,78.64
2023-03-29T07:27:53.470Z,78.64
2023-03-29T07:28:52.456Z,78.43
2023-03-29T07:29:52.426Z,78.64
2023-03-29T07:30:52.445Z,78.94
2023-03-29T07:31:52.405Z,78.33
2023-03-29T07:32:52.535Z,77.71
2023-03-29T07:33:52.519Z,77.92
2023-03-29T07:34:52.409Z,78.02
2023-03-29T07:35:52.386Z,77.81
2023-03-29T07:36:52.408Z,77.81
2023-03-29T07:37:52.380Z,78.70
2023-03-29T07:38:53.997Z,78.19
2023-03-29T07:39:52.360Z,77.88
2023-03-29T07:40:52.331Z,77.58
2023-03-29T07:41:52.309Z,77.37
2023-03-29T07:42:52.316Z,77.47
2023-03-29T07:43:52.618Z,77.23
2023-03-29T07:44:52.276Z,76.62
2023-03-29T07:45:52.290Z,76.75
2023-03-29T07:47:00.107Z,76.86
2023-03-29T07:47:59.451Z,76.62
2023-03-29T07:48:59.219Z,76.62
2023-03-29T07:49:59.240Z,76.51
2023-03-29T07:50:59.584Z,76.68
2023-03-29T07:51:59.215Z,76.27
2023-03-29T07:52:52.175Z,76.48
2023-03-29T07:53:52.198Z,76.07
2023-03-29T07:54:52.152Z,75.56
2023-03-29T07:55:52.201Z,75.42
2023-03-29T07:56:52.136Z,75.31
2023-03-29T07:57:52.152Z,75.52
2023-03-29T07:58:52.104Z,74.97
2023-03-29T07:59:52.099Z,75.07
2023-03-29T08:00:52.103Z,75.28
2023-03-29T08:01:52.077Z,74.84
2023-03-29T08:02:52.145Z,74.63
2023-03-29T08:03:52.273Z,74.43
2023-03-29T08:04:52.048Z,74.02
2023-03-29T08:05:52.044Z,74.02
2023-03-29T08:06:52.011Z,74.63
2023-03-29T08:07:52.001Z,73.91
2023-03-29T08:08:51.978Z,74.43
2023-03-29T08:09:51.977Z,74.32
2023-03-29T08:10:52.010Z,74.53
2023-03-29T08:11:51.989Z,74.43
2023-03-29T08:12:52.527Z,74.19
2023-03-29T08:13:51.969Z,74.08
2023-03-29T08:14:51.937Z,74.19
2023-03-29T08:15:51.920Z,73.98
2023-03-29T08:16:53.968Z,73.78
2023-03-29T08:17:51.931Z,73.98
2023-03-29T08:18:51.898Z,73.36
2023-03-29T08:19:52.307Z,73.78
2023-03-29T08:20:51.861Z,73.36
2023-03-29T08:21:51.825Z,73.54
2023-03-29T08:22:51.920Z,73.44
2023-03-29T08:23:51.835Z,73.20
2023-03-29T08:24:51.804Z,72.69
2023-03-29T08:25:51.827Z,72.89
2023-03-29T08:26:51.775Z,73.10
2023-03-29T08:27:51.796Z,72.38
2023-03-29T08:28:51.761Z,72.14
2023-03-29T08:29:51.828Z,72.45
2023-03-29T08:30:51.731Z,72.55
2023-03-29T08:31:51.724Z,71.33
2023-03-29T08:32:54.454Z,71.33
2023-03-29T08:33:54.404Z,71.42
2023-03-29T08:34:51.700Z,71.42
2023-03-29T08:35:51.690Z,71.42
2023-03-29T08:36:51.679Z,72.31
2023-03-29T08:37:51.666Z,72.31
2023-03-29T08:38:51.646Z,71.59
2023-03-29T08:39:51.888Z,71.59
2023-03-29T08:40:51.627Z,71.91
2023-03-29T08:41:51.620Z,72.00
2023-03-29T08:42:51.620Z,71.91
2023-03-29T08:43:51.631Z,72.31
2023-03-29T08:44:51.586Z,72.72
2023-03-29T08:45:51.661Z,71.91
2023-03-29T08:46:51.620Z,71.80
2023-03-29T08:47:54.364Z,71.80
2023-03-29T08:48:51.526Z,72.11
2023-03-29T08:49:51.524Z,72.21
2023-03-29T08:50:51.518Z,71.77
2023-03-29T08:51:51.487Z,71.97
2023-03-29T08:52:51.611Z,71.56
2023-03-29T08:53:51.489Z,71.77
2023-03-29T08:54:51.568Z,71.36
2023-03-29T08:55:52.454Z,71.36
2023-03-29T08:56:51.651Z,70.75
2023-03-29T08:57:52.337Z,71.05
2023-03-29T08:58:51.431Z,71.87
2023-03-29T08:59:51.443Z,71.46
2023-03-29T09:00:51.425Z,71.56
2023-03-29T09:01:51.389Z,72.07
2023-03-29T09:02:51.521Z,71.56
2023-03-29T09:03:51.390Z,72.17
2023-03-29T09:04:51.385Z,72.58
2023-03-29T09:05:51.343Z,72.21
2023-03-29T09:06:51.312Z,72.07
2023-03-29T09:07:51.321Z,71.87
2023-03-29T09:08:51.363Z,71.87
2023-03-29T09:09:51.306Z,71.87
2023-03-29T09:10:51.271Z,71.87
2023-03-29T09:11:51.304Z,72.28
2023-03-29T09:12:51.290Z,72.28
2023-03-29T09:13:51.231Z,72.28
2023-03-29T09:14:51.279Z,72.38
2023-03-29T09:15:51.245Z,71.94
2023-03-29T09:16:51.199Z,72.04
2023-03-29T09:17:51.341Z,72.24
2023-03-29T09:18:51.245Z,72.24
2023-03-29T09:19:51.189Z,71.50
2023-03-29T09:20:51.478Z,71.29
2023-03-29T09:21:51.228Z,71.09
2023-03-29T09:22:51.182Z,71.70
2023-03-29T09:23:52.464Z,71.19
2023-03-29T09:24:51.145Z,71.09
2023-03-29T09:25:54.074Z,70.57
2023-03-29T09:26:51.099Z,70.65
2023-03-29T09:27:51.177Z,70.75
2023-03-29T09:28:51.065Z,70.75
2023-03-29T09:29:51.080Z,70.57
2023-03-29T09:30:51.174Z,71.19
2023-03-29T09:31:51.046Z,71.56
2023-03-29T09:32:51.202Z,70.54
2023-03-29T09:33:51.023Z,71.26
2023-03-29T09:34:59.003Z,70.95
2023-03-29T09:35:50.993Z,70.85
2023-03-29T09:36:50.962Z,70.85
2023-03-29T09:37:51.013Z,70.65
2023-03-29T09:38:50.956Z,70.51
2023-03-29T09:39:50.967Z,70.14
2023-03-29T09:40:50.941Z,70.85
2023-03-29T09:41:50.900Z,70.61
2023-03-29T09:42:50.955Z,69.90
2023-03-29T09:43:50.908Z,70.48
2023-03-29T09:44:50.933Z,69.56
2023-03-29T09:45:50.881Z,69.26
2023-03-29T09:46:50.847Z,69.76
2023-03-29T09:47:50.874Z,69.46
2023-03-29T09:48:50.848Z,69.76
2023-03-29T09:49:50.820Z,69.36
2023-03-29T09:50:50.808Z,69.67
2023-03-29T09:51:50.799Z,69.46
2023-03-29T09:52:50.817Z,69.23
2023-03-29T09:53:50.803Z,68.71
2023-03-29T09:54:50.764Z,69.43
2023-03-29T09:55:50.762Z,69.43
2023-03-29T09:56:50.813Z,69.12
2023-03-29T09:57:50.746Z,70.04
2023-03-29T09:58:50.725Z,69.40
2023-03-29T09:59:50.712Z,69.09
2023-03-29T10:00:50.730Z,69.09
2023-03-29T10:01:50.727Z,69.70
2023-03-29T10:02:50.714Z,69.40
2023-03-29T10:03:50.756Z,69.29
2023-03-29T10:04:50.666Z,68.79
2023-03-29T10:05:50.651Z,68.58
2023-03-29T10:06:50.624Z,69.40
2023-03-29T10:07:50.656Z,68.44
2023-03-29T10:08:50.613Z,68.24
2023-03-29T10:09:50.673Z,69.19
2023-03-29T10:10:50.633Z,69.19
2023-03-29T10:11:50.589Z,68.68
2023-03-29T10:12:50.537Z,69.57
2023-03-29T10:13:50.585Z,68.96
2023-03-29T10:14:53.046Z,69.06
2023-03-29T10:15:50.534Z,69.16
2023-03-29T10:16:50.604Z,69.40
2023-03-29T10:17:51.589Z,69.19
2023-03-29T10:18:50.523Z,69.29
2023-03-29T10:19:50.543Z,68.79
2023-03-29T10:20:50.536Z,69.29
2023-03-29T10:21:50.502Z,69.19
2023-03-29T10:22:50.807Z,69.49
2023-03-29T10:23:50.491Z,69.60
2023-03-29T10:24:50.462Z,69.09
2023-03-29T10:25:50.504Z,69.90
2023-03-29T10:26:50.401Z,70.31
2023-03-29T10:27:50.441Z,70.10
2023-03-29T10:28:50.376Z,70.21
2023-03-29T10:29:50.387Z,70.07
2023-03-29T10:30:50.340Z,69.16
2023-03-29T10:31:50.373Z,69.33
2023-03-29T10:32:50.358Z,69.53
2023-03-29T10:33:50.330Z,69.64
2023-03-29T10:34:50.292Z,69.64
2023-03-29T10:35:50.279Z,69.20
2023-03-29T10:36:50.281Z,67.74
2023-03-29T10:37:50.267Z,68.25
2023-03-29T10:38:50.271Z,68.93
2023-03-29T10:39:50.234Z,68.62
2023-03-29T10:40:50.234Z,67.91
2023-03-29T10:41:50.224Z,67.98
2023-03-29T10:42:50.213Z,66.77
2023-03-29T10:43:52.916Z,67.65
2023-03-29T10:44:50.199Z,67.75
2023-03-29T10:45:50.200Z,67.31
2023-03-29T10:46:50.171Z,68.63
2023-03-29T10:47:50.233Z,67.28
2023-03-29T10:48:50.161Z,66.47
2023-03-29T10:49:50.945Z,66.06
2023-03-29T10:50:50.126Z,66.37
2023-03-29T10:51:50.117Z,66.19
2023-03-29T10:52:50.102Z,65.62
2023-03-29T10:53:50.117Z,66.63
2023-03-29T10:54:50.098Z,67.17
2023-03-29T10:55:50.067Z,67.17
2023-03-29T10:56:52.349Z,66.97
2023-03-29T10:57:50.046Z,67.07
2023-03-29T10:58:50.058Z,67.68
2023-03-29T10:59:50.008Z,67.03
2023-03-29T11:00:50.000Z,66.63
2023-03-29T11:01:50.109Z,66.09
2023-03-29T11:02:50.060Z,66.80
2023-03-29T11:03:50.061Z,66.09
2023-03-29T11:04:49.960Z,66.19
2023-03-29T11:05:49.958Z,65.99
2023-03-29T11:06:49.929Z,65.28
2023-03-29T11:07:49.973Z,65.62
2023-03-29T11:08:49.930Z,66.23
2023-03-29T11:09:49.945Z,66.53
2023-03-29T11:10:49.890Z,66.53
2023-03-29T11:11:51.575Z,66.09
2023-03-29T11:12:50.865Z,65.79
2023-03-29T11:13:58.730Z,67.41
2023-03-29T11:14:59.697Z,66.70
2023-03-29T11:15:56.933Z,66.19
2023-03-29T11:16:56.838Z,66.30
2023-03-29T11:17:58.224Z,66.40
2023-03-29T11:18:49.841Z,66.60
2023-03-29T11:19:58.107Z,66.80
2023-03-29T11:20:49.766Z,66.37
2023-03-29T11:21:49.767Z,66.37
2023-03-29T11:22:49.758Z,65.99
2023-03-29T11:23:49.775Z,65.86
2023-03-29T11:24:49.732Z,65.86
2023-03-29T11:25:49.756Z,66.06
2023-03-29T11:26:49.721Z,65.83
2023-03-29T11:27:49.807Z,65.73
2023-03-29T11:28:49.895Z,65.53
2023-03-29T11:29:49.802Z,65.93
2023-03-29T11:30:49.902Z,65.80
2023-03-29T11:31:49.695Z,65.39
2023-03-29T11:32:49.675Z,64.38
2023-03-29T11:33:49.642Z,65.36
2023-03-29T11:34:49.667Z,64.45
2023-03-29T11:35:49.671Z,65.16
2023-03-29T11:36:49.617Z,64.02
2023-03-29T11:37:49.602Z,64.32
2023-03-29T11:38:49.624Z,64.45
2023-03-29T11:39:49.559Z,65.19
2023-03-29T11:40:49.562Z,66.10
2023-03-29T11:41:49.559Z,66.44
2023-03-29T11:42:49.532Z,65.22
2023-03-29T11:43:49.559Z,65.62
2023-03-29T11:44:49.500Z,65.76
2023-03-29T11:45:49.493Z,66.37
2023-03-29T11:46:49.571Z,66.67
2023-03-29T11:47:49.528Z,66.47
2023-03-29T11:48:49.477Z,67.08
2023-03-29T11:49:49.440Z,66.37
2023-03-29T11:50:49.466Z,66.67
2023-03-29T11:51:49.450Z,66.97
2023-03-29T11:52:49.411Z,65.93
2023-03-29T11:53:49.436Z,65.76
2023-03-29T11:54:49.397Z,66.47
2023-03-29T11:55:49.402Z,65.76
2023-03-29T11:56:49.411Z,64.92
2023-03-29T11:57:49.351Z,65.50
2023-03-29T11:58:49.421Z,65.29
2023-03-29T11:59:49.372Z,65.67
2023-03-29T12:00:49.368Z,65.36
2023-03-29T12:01:49.618Z,65.64
2023-03-29T12:02:49.408Z,65.43
2023-03-29T12:03:49.334Z,65.53
2023-03-29T12:04:49.379Z,63.81
2023-03-29T12:05:49.283Z,65.43
2023-03-29T12:06:49.244Z,63.81
2023-03-29T12:07:51.060Z,65.30
2023-03-29T12:08:49.238Z,63.68
2023-03-29T12:09:49.214Z,62.77
2023-03-29T12:10:49.201Z,62.98
2023-03-29T12:11:49.195Z,62.77
2023-03-29T12:12:49.173Z,62.77
2023-03-29T12:13:50.722Z,63.05
2023-03-29T12:14:49.162Z,62.44
2023-03-29T12:15:49.964Z,62.34
2023-03-29T12:16:49.323Z,62.85
2023-03-29T12:17:49.233Z,62.64
2023-03-29T12:18:49.127Z,62.64
2023-03-29T12:19:49.096Z,64.70
2023-03-29T12:20:49.091Z,63.48
2023-03-29T12:21:49.068Z,64.12
2023-03-29T12:22:49.135Z,64.22
2023-03-29T12:23:49.063Z,64.69
2023-03-29T12:24:49.081Z,65.50
2023-03-29T12:25:49.013Z,65.56
2023-03-29T12:26:49.037Z,65.36
2023-03-29T12:27:48.990Z,65.53
2023-03-29T12:28:48.980Z,65.53
2023-03-29T12:29:48.968Z,65.10
2023-03-29T12:30:48.962Z,64.87
2023-03-29T12:31:48.985Z,64.53
2023-03-29T12:32:48.991Z,64.50
2023-03-29T12:33:48.949Z,63.90
2023-03-29T12:34:48.923Z,63.39
2023-03-29T12:35:48.925Z,63.49
2023-03-29T12:36:48.910Z,64.33
2023-03-29T12:37:48.869Z,64.40
2023-03-29T12:38:48.877Z,63.49
2023-03-29T12:39:48.864Z,63.90
2023-03-29T12:40:48.853Z,63.19
2023-03-29T12:41:48.828Z,62.79
2023-03-29T12:42:48.821Z,63.29
2023-03-29T12:43:48.831Z,63.49
2023-03-29T12:44:48.809Z,62.99
2023-03-29T12:45:48.901Z,62.99
2023-03-29T12:46:48.986Z,63.70
2023-03-29T12:47:48.838Z,63.70
2023-03-29T12:48:48.754Z,62.68
2023-03-29T12:49:48.770Z,63.39
2023-03-29T12:50:48.730Z,63.32
2023-03-29T12:51:48.718Z,63.62
2023-03-29T12:52:48.745Z,64.53